sensor_id;sensor_type;location;lat;lon;timestamp;pressure;altitude;pressure_sealevel;temperature;humidity
57948;BME280;43754;56.992;24.292;2023-03-01T00:01:27;102255.56;;;1.06;100.00
57948;BME280;43754;56.992;24.292;2023-03-01T00:03:59;102266.97;;;1.07;100.00
57948;BME280;43754;56.992;24.292;2023-03-01T00:06:31;102266.97;;;1.07;100.00
57948;BME280;43754;56.992;24.292;2023-03-01T00:09:04;102282.81;;;1.07;100.00
57948;BME280;43754;56.992;24.292;2023-03-01T00:11:36;102276.84;;;1.03;100.00
57948;BME280;43754;56.992;24.292;2023-03-01T00:14:09;102276.94;;;1.02;100.00
57948;BME280;43754;56.992;24.292;2023-03-01T00:16:42;102270.78;;;1.01;100.00
57948;BME280;43754;56.992;24.292;2023-03-01T00:19:17;102275.06;;;1.04;100.00
57948;BME280;43754;56.992;24.292;2023-03-01T00:21:49;102276.94;;;1.02;100.00
57948;BME280;43754;56.992;24.292;2023-03-01T00:24:21;102269.00;;;1.02;100.00
57948;BME280;43754;56.992;24.292;2023-03-01T00:26:54;102269.09;;;1.00;100.00
57948;BME280;43754;56.992;24.292;2023-03-01T00:29:28;102263.81;;;1.00;100.00
57948;BME280;43754;56.992;24.292;2023-03-01T00:32:00;102265.50;;;1.01;100.00
57948;BME280;43754;56.992;24.292;2023-03-01T00:34:32;102250.63;;;1.00;100.00
57948;BME280;43754;56.992;24.292;2023-03-01T00:37:04;102264.75;;;0.99;100.00
57948;BME280;43754;56.992;24.292;2023-03-01T00:39:39;102252.47;;;0.98;100.00
57948;BME280;43754;56.992;24.292;2023-03-01T00:42:11;102250.69;;;0.99;100.00
57948;BME280;43754;56.992;24.292;2023-03-01T00:44:44;102239.22;;;1.00;100.00
57948;BME280;43754;56.992;24.292;2023-03-01T00:47:16;102238.25;;;1.01;100.00
57948;BME280;43754;56.992;24.292;2023-03-01T00:49:48;102241.75;;;1.01;100.00
57948;BME280;43754;56.992;24.292;2023-03-01T00:52:20;102241.75;;;1.01;100.00
57948;BME280;43754;56.992;24.292;2023-03-01T00:54:53;102233.94;;;1.00;100.00
57948;BME280;43754;56.992;24.292;2023-03-01T00:57:25;102239.22;;;1.00;100.00
57948;BME280;43754;56.992;24.292;2023-03-01T00:59:59;102250.53;;;1.02;100.00
57948;BME280;43754;56.992;24.292;2023-03-01T01:02:32;102239.97;;;1.02;100.00
57948;BME280;43754;56.992;24.292;2023-03-01T01:05:05;102246.16;;;1.01;100.00
57948;BME280;43754;56.992;24.292;2023-03-01T01:07:38;102236.47;;;1.01;100.00
57948;BME280;43754;56.992;24.292;2023-03-01T01:10:10;102243.28;;;1.05;100.00
57948;BME280;43754;56.992;24.292;2023-03-01T01:12:48;102234.63;;;1.03;100.00
57948;BME280;43754;56.992;24.292;2023-03-01T01:15:22;102240.81;;;1.02;100.00
57948;BME280;43754;56.992;24.292;2023-03-01T01:17:54;102230.25;;;1.02;100.00
57948;BME280;43754;56.992;24.292;2023-03-01T01:20:26;102232.91;;;1.02;100.00
57948;BME280;43754;56.992;24.292;2023-03-01T01:22:58;102238.97;;;1.04;100.00
57948;BME280;43754;56.992;24.292;2023-03-01T01:25:30;102237.16;;;1.05;100.00
57948;BME280;43754;56.992;24.292;2023-03-01T01:28:03;102235.47;;;1.04;100.00
57948;BME280;43754;56.992;24.292;2023-03-01T01:30:36;102239.91;;;1.03;100.00
57948;BME280;43754;56.992;24.292;2023-03-01T01:33:08;102232.81;;;1.04;100.00
57948;BME280;43754;56.992;24.292;2023-03-01T01:35:40;102237.25;;;1.03;100.00
57948;BME280;43754;56.992;24.292;2023-03-01T01:38:12;102235.59;;;1.01;100.00
57948;BME280;43754;56.992;24.292;2023-03-01T01:40:44;102242.44;;;1.05;100.00
57948;BME280;43754;56.992;24.292;2023-03-01T01:43:20;102235.38;;;1.05;100.00
57948;BME280;43754;56.992;24.292;2023-03-01T01:45:55;102249.25;;;1.09;100.00
57948;BME280;43754;56.992;24.292;2023-03-01T01:48:34;102240.75;;;1.04;100.00
57948;BME280;43754;56.992;24.292;2023-03-01T01:51:13;102246.03;;;1.04;100.00
57948;BME280;43754;56.992;24.292;2023-03-01T01:53:51;102251.44;;;1.01;100.00
57948;BME280;43754;56.992;24.292;2023-03-01T01:56:25;102242.59;;;1.02;100.00
57948;BME280;43754;56.992;24.292;2023-03-01T01:58:58;102247.88;;;1.02;100.00
57948;BME280;43754;56.992;24.292;2023-03-01T02:01:32;102255.97;;;0.99;100.00
57948;BME280;43754;56.992;24.292;2023-03-01T02:04:04;102255.13;;;0.98;100.00
57948;BME280;43754;56.992;24.292;2023-03-01T02:06:41;102256.03;;;0.97;100.00
57948;BME280;43754;56.992;24.292;2023-03-01T02:09:16;102252.66;;;0.95;100.00
57948;BME280;43754;56.992;24.292;2023-03-01T02:11:51;102263.22;;;0.95;100.00
57948;BME280;43754;56.992;24.292;2023-03-01T02:14:23;102254.50;;;0.93;100.00
57948;BME280;43754;56.992;24.292;2023-03-01T02:16:57;102258.00;;;0.93;100.00
57948;BME280;43754;56.992;24.292;2023-03-01T02:19:46;102254.59;;;0.91;100.00
57948;BME280;43754;56.992;24.292;2023-03-01T02:22:25;102252.78;;;0.92;100.00
57948;BME280;43754;56.992;24.292;2023-03-01T02:25:08;102259.16;;;0.88;100.00
57948;BME280;43754;56.992;24.292;2023-03-01T02:27:49;102258.16;;;0.90;100.00
57948;BME280;43754;56.992;24.292;2023-03-01T02:30:28;102259.09;;;0.89;100.00
57948;BME280;43754;56.992;24.292;2023-03-01T02:33:03;102259.94;;;0.90;100.00
57948;BME280;43754;56.992;24.292;2023-03-01T02:35:38;102262.53;;;0.91;100.00
57948;BME280;43754;56.992;24.292;2023-03-01T02:38:10;102257.25;;;0.91;100.00
57948;BME280;43754;56.992;24.292;2023-03-01T02:40:43;102263.44;;;0.90;100.00
57948;BME280;43754;56.992;24.292;2023-03-01T02:43:17;102267.81;;;0.91;100.00
57948;BME280;43754;56.992;24.292;2023-03-01T02:45:53;102268.72;;;0.90;100.00
57948;BME280;43754;56.992;24.292;2023-03-01T02:48:39;102266.84;;;0.92;100.00
57948;BME280;43754;56.992;24.292;2023-03-01T02:51:22;102260.47;;;0.97;100.00
57948;BME280;43754;56.992;24.292;2023-03-01T02:54:07;102245.66;;;0.94;100.00
57948;BME280;43754;56.992;24.292;2023-03-01T02:56:40;102249.06;;;0.96;100.00
57948;BME280;43754;56.992;24.292;2023-03-01T02:59:12;102257.75;;;0.98;100.00
57948;BME280;43754;56.992;24.292;2023-03-01T03:01:46;102261.09;;;1.02;100.00
57948;BME280;43754;56.992;24.292;2023-03-01T03:04:18;102267.84;;;1.07;100.00
57948;BME280;43754;56.992;24.292;2023-03-01T03:06:53;102268.59;;;1.09;100.00
57948;BME280;43754;56.992;24.292;2023-03-01T03:09:25;102259.06;;;1.07;100.00
57948;BME280;43754;56.992;24.292;2023-03-01T03:11:57;102257.09;;;1.10;100.00
57948;BME280;43754;56.992;24.292;2023-03-01T03:14:30;102260.59;;;1.11;100.00
57948;BME280;43754;56.992;24.292;2023-03-01T03:17:08;102251.75;;;1.12;100.00
57948;BME280;43754;56.992;24.292;2023-03-01T03:19:40;102253.53;;;1.11;100.00
57948;BME280;43754;56.992;24.292;2023-03-01T03:22:12;102261.28;;;1.14;100.00
57948;BME280;43754;56.992;24.292;2023-03-01T03:24:44;102264.59;;;1.18;100.00
57948;BME280;43754;56.992;24.292;2023-03-01T03:27:16;102265.56;;;1.17;100.00
57948;BME280;43754;56.992;24.292;2023-03-01T03:29:48;102264.59;;;1.18;100.00
57948;BME280;43754;56.992;24.292;2023-03-01T03:32:21;102260.00;;;1.21;100.00
57948;BME280;43754;56.992;24.292;2023-03-01T03:34:53;102257.22;;;1.24;100.00
57948;BME280;43754;56.992;24.292;2023-03-01T03:37:25;102275.47;;;1.29;100.00
57948;BME280;43754;56.992;24.292;2023-03-01T03:40:16;102260.53;;;1.28;100.00
57948;BME280;43754;56.992;24.292;2023-03-01T03:42:48;102269.22;;;1.30;100.00
57948;BME280;43754;56.992;24.292;2023-03-01T03:45:20;102267.38;;;1.32;100.00
57948;BME280;43754;56.992;24.292;2023-03-01T03:47:53;102269.94;;;1.33;100.00
57948;BME280;43754;56.992;24.292;2023-03-01T03:50:25;102269.66;;;1.38;100.00
57948;BME280;43754;56.992;24.292;2023-03-01T03:52:57;102268.72;;;1.39;100.00
57948;BME280;43754;56.992;24.292;2023-03-01T03:55:32;102264.13;;;1.43;100.00
57948;BME280;43754;56.992;24.292;2023-03-01T03:58:07;102266.69;;;1.44;100.00
57948;BME280;43754;56.992;24.292;2023-03-01T04:00:41;102266.69;;;1.44;100.00
57948;BME280;43754;56.992;24.292;2023-03-01T04:03:15;102270.94;;;1.47;100.00
57948;BME280;43754;56.992;24.292;2023-03-01T04:05:49;102271.72;;;1.49;100.00
57948;BME280;43754;56.992;24.292;2023-03-01T04:08:23;102267.31;;;1.49;100.00
57948;BME280;43754;56.992;24.292;2023-03-01T04:11:00;102269.94;;;1.49;100.00
57948;BME280;43754;56.992;24.292;2023-03-01T04:13:54;102268.06;;;1.51;100.00
57948;BME280;43754;56.992;24.292;2023-03-01T04:16:26;102272.41;;;1.52;100.00
57948;BME280;43754;56.992;24.292;2023-03-01T04:19:00;102270.94;;;1.47;100.00
57948;BME280;43754;56.992;24.292;2023-03-01T04:21:32;102266.28;;;1.52;100.00
57948;BME280;43754;56.992;24.292;2023-03-01T04:24:04;102271.31;;;1.56;100.00
57948;BME280;43754;56.992;24.292;2023-03-01T04:26:36;102275.56;;;1.59;100.00
57948;BME280;43754;56.992;24.292;2023-03-01T04:29:08;102272.09;;;1.58;100.00
57948;BME280;43754;56.992;24.292;2023-03-01T04:31:40;102260.31;;;1.64;100.00
57948;BME280;43754;56.992;24.292;2023-03-01T04:34:14;102269.09;;;1.64;100.00
57948;BME280;43754;56.992;24.292;2023-03-01T04:36:46;102266.38;;;1.66;100.00
57948;BME280;43754;56.992;24.292;2023-03-01T04:39:18;102273.44;;;1.65;100.00
57948;BME280;43754;56.992;24.292;2023-03-01T04:41:50;102274.19;;;1.67;100.00
57948;BME280;43754;56.992;24.292;2023-03-01T04:44:22;102278.66;;;1.67;100.00
57948;BME280;43754;56.992;24.292;2023-03-01T04:46:54;102264.59;;;1.66;100.00
57948;BME280;43754;56.992;24.292;2023-03-01T04:49:27;102272.34;;;1.69;100.00
57948;BME280;43754;56.992;24.292;2023-03-01T04:51:59;102266.97;;;1.71;100.00
57948;BME280;43754;56.992;24.292;2023-03-01T04:54:34;102265.25;;;1.70;100.00
57948;BME280;43754;56.992;24.292;2023-03-01T04:57:06;102269.69;;;1.69;100.00
57948;BME280;43754;56.992;24.292;2023-03-01T04:59:38;102271.47;;;1.69;100.00
57948;BME280;43754;56.992;24.292;2023-03-01T05:02:10;102277.63;;;1.69;100.00
57948;BME280;43754;56.992;24.292;2023-03-01T05:04:43;102260.03;;;1.68;100.00
57948;BME280;43754;56.992;24.292;2023-03-01T05:07:15;102267.22;;;1.66;100.00
57948;BME280;43754;56.992;24.292;2023-03-01T05:09:50;102265.50;;;1.65;100.00
57948;BME280;43754;56.992;24.292;2023-03-01T05:12:25;102263.81;;;1.64;100.00
57948;BME280;43754;56.992;24.292;2023-03-01T05:14:57;102266.53;;;1.63;100.00
57948;BME280;43754;56.992;24.292;2023-03-01T05:17:30;102264.66;;;1.65;100.00
57948;BME280;43754;56.992;24.292;2023-03-01T05:20:04;102268.47;;;1.59;100.00
57948;BME280;43754;56.992;24.292;2023-03-01T05:22:40;102266.53;;;1.63;100.00
57948;BME280;43754;56.992;24.292;2023-03-01T05:25:12;102265.59;;;1.64;100.00
57948;BME280;43754;56.992;24.292;2023-03-01T05:27:45;102263.81;;;1.64;100.00
57948;BME280;43754;56.992;24.292;2023-03-01T05:30:18;102272.59;;;1.65;100.00
57948;BME280;43754;56.992;24.292;2023-03-01T05:32:50;102267.38;;;1.63;100.00
57948;BME280;43754;56.992;24.292;2023-03-01T05:35:29;102264.72;;;1.63;100.00
57948;BME280;43754;56.992;24.292;2023-03-01T05:38:01;102267.03;;;1.69;100.00
57948;BME280;43754;56.992;24.292;2023-03-01T05:40:34;102257.22;;;1.71;100.00
57948;BME280;43754;56.992;24.292;2023-03-01T05:43:06;102274.03;;;1.70;100.00
57948;BME280;43754;56.992;24.292;2023-03-01T05:45:39;102265.50;;;1.65;100.00
57948;BME280;43754;56.992;24.292;2023-03-01T05:48:13;102271.72;;;1.64;100.00
57948;BME280;43754;56.992;24.292;2023-03-01T05:50:46;102276.69;;;1.70;100.00
57948;BME280;43754;56.992;24.292;2023-03-01T05:53:19;102273.88;;;1.73;100.00
57948;BME280;43754;56.992;24.292;2023-03-01T05:55:54;102268.41;;;1.76;100.00
57948;BME280;43754;56.992;24.292;2023-03-01T05:58:26;102279.06;;;1.75;100.00
57948;BME280;43754;56.992;24.292;2023-03-01T06:00:58;102280.09;;;1.72;100.00
57948;BME280;43754;56.992;24.292;2023-03-01T06:03:30;102282.03;;;1.69;100.00
57948;BME280;43754;56.992;24.292;2023-03-01T06:06:04;102279.41;;;1.69;100.00
57948;BME280;43754;56.992;24.292;2023-03-01T06:08:36;102274.97;;;1.69;100.00
57948;BME280;43754;56.992;24.292;2023-03-01T06:11:09;102274.97;;;1.69;100.00
57948;BME280;43754;56.992;24.292;2023-03-01T06:13:41;102282.03;;;1.69;100.00
57948;BME280;43754;56.992;24.292;2023-03-01T06:16:14;102283.56;;;1.73;100.00
57948;BME280;43754;56.992;24.292;2023-03-01T06:18:46;102284.25;;;1.76;100.00
57948;BME280;43754;56.992;24.292;2023-03-01T06:21:19;102295.88;;;1.74;100.00
57948;BME280;43754;56.992;24.292;2023-03-01T06:23:51;102302.69;;;1.78;100.00
57948;BME280;43754;56.992;24.292;2023-03-01T06:26:23;102299.97;;;1.79;100.00
57948;BME280;43754;56.992;24.292;2023-03-01T06:28:55;102305.25;;;1.79;100.00
57948;BME280;43754;56.992;24.292;2023-03-01T06:31:27;102302.50;;;1.81;100.00
57948;BME280;43754;56.992;24.292;2023-03-01T06:33:59;102310.19;;;1.85;100.00
57948;BME280;43754;56.992;24.292;2023-03-01T06:36:33;102304.81;;;1.87;100.00
57948;BME280;43754;56.992;24.292;2023-03-01T06:39:05;102304.53;;;2.07;100.00
57948;BME280;43754;56.992;24.292;2023-03-01T06:41:37;102306.97;;;2.26;100.00
57948;BME280;43754;56.992;24.292;2023-03-01T06:44:08;102308.38;;;2.47;100.00
57948;BME280;43754;56.992;24.292;2023-03-01T06:46:40;102307.13;;;2.68;100.00
57948;BME280;43754;56.992;24.292;2023-03-01T06:49:12;102309.03;;;2.81;100.00
57948;BME280;43754;56.992;24.292;2023-03-01T06:51:46;102315.41;;;2.92;100.00
57948;BME280;43754;56.992;24.292;2023-03-01T06:54:18;102302.94;;;3.08;100.00
57948;BME280;43754;56.992;24.292;2023-03-01T06:56:50;102302.66;;;3.27;100.00
57948;BME280;43754;56.992;24.292;2023-03-01T06:59:22;102301.63;;;3.30;100.00
57948;BME280;43754;56.992;24.292;2023-03-01T07:01:54;102300.56;;;3.32;100.00
57948;BME280;43754;56.992;24.292;2023-03-01T07:04:26;102293.66;;;3.15;100.00
57948;BME280;43754;56.992;24.292;2023-03-01T07:07:01;102308.91;;;3.12;100.00
57948;BME280;43754;56.992;24.292;2023-03-01T07:09:33;102307.56;;;3.19;100.00
57948;BME280;43754;56.992;24.292;2023-03-01T07:12:06;102302.28;;;3.19;100.00
57948;BME280;43754;56.992;24.292;2023-03-01T07:14:38;102313.06;;;3.16;100.00
57948;BME280;43754;56.992;24.292;2023-03-01T07:17:10;102312.56;;;3.09;100.00
57948;BME280;43754;56.992;24.292;2023-03-01T07:19:42;102306.16;;;2.99;100.00
57948;BME280;43754;56.992;24.292;2023-03-01T07:22:15;102302.09;;;3.08;100.00
57948;BME280;43754;56.992;24.292;2023-03-01T07:24:47;102300.41;;;3.21;100.00
57948;BME280;43754;56.992;24.292;2023-03-01T07:27:19;102304.63;;;3.23;100.00
57948;BME280;43754;56.992;24.292;2023-03-01T07:29:51;102316.28;;;3.35;100.00
57948;BME280;43754;56.992;24.292;2023-03-01T07:32:23;102309.66;;;3.42;100.00
57948;BME280;43754;56.992;24.292;2023-03-01T07:34:55;102315.31;;;3.64;100.00
57948;BME280;43754;56.992;24.292;2023-03-01T07:37:29;102312.38;;;3.69;100.00
57948;BME280;43754;56.992;24.292;2023-03-01T07:40:01;102316.03;;;3.81;100.00
57948;BME280;43754;56.992;24.292;2023-03-01T07:42:32;102318.66;;;3.95;100.00
57948;BME280;43754;56.992;24.292;2023-03-01T07:45:06;102324.53;;;4.00;100.00
57948;BME280;43754;56.992;24.292;2023-03-01T07:47:38;102320.47;;;3.80;100.00
57948;BME280;43754;56.992;24.292;2023-03-01T07:50:10;102319.25;;;3.71;100.00
57948;BME280;43754;56.992;24.292;2023-03-01T07:52:46;102322.47;;;3.91;100.00
57948;BME280;43754;56.992;24.292;2023-03-01T07:55:18;102327.97;;;4.14;100.00
57948;BME280;43754;56.992;24.292;2023-03-01T07:57:51;102314.06;;;4.11;100.00
57948;BME280;43754;56.992;24.292;2023-03-01T08:00:23;102319.06;;;4.15;100.00
57948;BME280;43754;56.992;24.292;2023-03-01T08:02:58;102324.59;;;4.12;100.00
57948;BME280;43754;56.992;24.292;2023-03-01T08:05:30;102323.16;;;4.07;100.00
57948;BME280;43754;56.992;24.292;2023-03-01T08:08:05;102322.97;;;4.10;100.00
57948;BME280;43754;56.992;24.292;2023-03-01T08:10:37;102320.22;;;4.11;100.00
57948;BME280;43754;56.992;24.292;2023-03-01T08:13:09;102331.75;;;4.25;100.00
57948;BME280;43754;56.992;24.292;2023-03-01T08:15:41;102327.78;;;4.44;100.00
57948;BME280;43754;56.992;24.292;2023-03-01T08:18:13;102326.13;;;4.29;100.00
57948;BME280;43754;56.992;24.292;2023-03-01T08:20:45;102327.13;;;4.41;100.00
57948;BME280;43754;56.992;24.292;2023-03-01T08:23:18;102322.75;;;4.67;100.00
57948;BME280;43754;56.992;24.292;2023-03-01T08:25:50;102329.31;;;4.74;100.00
57948;BME280;43754;56.992;24.292;2023-03-01T08:28:22;102325.59;;;4.76;100.00
57948;BME280;43754;56.992;24.292;2023-03-01T08:30:54;102312.16;;;4.92;100.00
57948;BME280;43754;56.992;24.292;2023-03-01T08:33:26;102308.94;;;4.87;100.00
57948;BME280;43754;56.992;24.292;2023-03-01T08:36:05;102309.91;;;4.86;100.00
57948;BME280;43754;56.992;24.292;2023-03-01T08:38:39;102307.47;;;5.08;100.00
57948;BME280;43754;56.992;24.292;2023-03-01T08:41:11;102310.75;;;5.37;100.00
57948;BME280;43754;56.992;24.292;2023-03-01T08:43:44;102309.97;;;5.47;99.74
57948;BME280;43754;56.992;24.292;2023-03-01T08:46:16;102314.63;;;5.69;99.20
57948;BME280;43754;56.992;24.292;2023-03-01T08:48:48;102314.75;;;5.68;96.85
57948;BME280;43754;56.992;24.292;2023-03-01T08:51:21;102311.88;;;5.71;97.06
57948;BME280;43754;56.992;24.292;2023-03-01T08:53:55;102310.75;;;5.86;95.61
57948;BME280;43754;56.992;24.292;2023-03-01T08:56:27;102313.34;;;6.11;93.95
57948;BME280;43754;56.992;24.292;2023-03-01T08:58:59;102313.59;;;6.08;91.33
57948;BME280;43754;56.992;24.292;2023-03-01T09:01:31;102311.38;;;6.02;89.04
57948;BME280;43754;56.992;24.292;2023-03-01T09:04:03;102308.88;;;6.12;86.23
57948;BME280;43754;56.992;24.292;2023-03-01T09:06:36;102316.69;;;6.02;87.15
57948;BME280;43754;56.992;24.292;2023-03-01T09:09:13;102317.97;;;6.09;85.63
57948;BME280;43754;56.992;24.292;2023-03-01T09:11:46;102322.25;;;5.99;85.88
57948;BME280;43754;56.992;24.292;2023-03-01T09:14:19;102320.38;;;6.12;84.79
57948;BME280;43754;56.992;24.292;2023-03-01T09:16:51;102321.69;;;6.30;85.96
57948;BME280;43754;56.992;24.292;2023-03-01T09:19:22;102320.72;;;6.55;83.68
57948;BME280;43754;56.992;24.292;2023-03-01T09:21:57;102318.91;;;6.32;83.81
57948;BME280;43754;56.992;24.292;2023-03-01T09:24:31;102314.75;;;6.52;83.85
57948;BME280;43754;56.992;24.292;2023-03-01T09:27:03;102321.78;;;6.53;81.61
57948;BME280;43754;56.992;24.292;2023-03-01T09:29:35;102323.06;;;6.71;79.07
57948;BME280;43754;56.992;24.292;2023-03-01T09:32:08;102321.25;;;6.71;77.10
57948;BME280;43754;56.992;24.292;2023-03-01T09:34:40;102323.69;;;6.74;76.06
57948;BME280;43754;56.992;24.292;2023-03-01T09:37:31;102326.59;;;6.71;74.78
57948;BME280;43754;56.992;24.292;2023-03-01T09:40:07;102322.22;;;6.70;72.38
57948;BME280;43754;56.992;24.292;2023-03-01T09:42:51;102322.72;;;6.75;73.00
57948;BME280;43754;56.992;24.292;2023-03-01T09:45:34;102329.16;;;6.49;71.67
57948;BME280;43754;56.992;24.292;2023-03-01T09:48:12;102342.69;;;6.22;72.45
57948;BME280;43754;56.992;24.292;2023-03-01T09:50:47;102329.31;;;6.35;72.96
57948;BME280;43754;56.992;24.292;2023-03-01T09:53:21;102326.47;;;6.38;73.96
57948;BME280;43754;56.992;24.292;2023-03-01T09:55:59;102326.16;;;6.54;72.33
57948;BME280;43754;56.992;24.292;2023-03-01T09:58:39;102326.78;;;6.68;71.32
57948;BME280;43754;56.992;24.292;2023-03-01T10:01:27;102332.28;;;6.78;70.96
57948;BME280;43754;56.992;24.292;2023-03-01T10:04:12;102333.06;;;6.91;67.86
57948;BME280;43754;56.992;24.292;2023-03-01T10:06:51;102332.13;;;6.68;66.94
57948;BME280;43754;56.992;24.292;2023-03-01T10:09:28;102327.91;;;6.77;68.77
57948;BME280;43754;56.992;24.292;2023-03-01T10:12:08;102325.97;;;6.68;67.18
57948;BME280;43754;56.992;24.292;2023-03-01T10:14:47;102331.75;;;6.62;68.70
57948;BME280;43754;56.992;24.292;2023-03-01T10:17:28;102329.94;;;6.62;65.87
57948;BME280;43754;56.992;24.292;2023-03-01T10:20:18;102325.75;;;6.82;66.82
57948;BME280;43754;56.992;24.292;2023-03-01T10:22:50;102328.19;;;6.85;68.04
57948;BME280;43754;56.992;24.292;2023-03-01T10:25:36;102328.41;;;6.71;66.80
57948;BME280;43754;56.992;24.292;2023-03-01T10:28:19;102325.31;;;6.53;67.67
57948;BME280;43754;56.992;24.292;2023-03-01T10:30:52;102329.50;;;6.44;67.84
57948;BME280;43754;56.992;24.292;2023-03-01T10:33:29;102320.06;;;6.52;69.57
57948;BME280;43754;56.992;24.292;2023-03-01T10:36:03;102318.59;;;6.71;68.79
57948;BME280;43754;56.992;24.292;2023-03-01T10:38:48;102319.81;;;6.78;67.83
57948;BME280;43754;56.992;24.292;2023-03-01T10:41:21;102313.03;;;6.74;67.39
57948;BME280;43754;56.992;24.292;2023-03-01T10:43:58;102317.56;;;6.96;67.52
57948;BME280;43754;56.992;24.292;2023-03-01T10:46:33;102314.91;;;6.96;68.55
57948;BME280;43754;56.992;24.292;2023-03-01T10:49:14;102306.81;;;7.09;68.44
57948;BME280;43754;56.992;24.292;2023-03-01T10:51:48;102306.19;;;7.27;68.08
57948;BME280;43754;56.992;24.292;2023-03-01T10:54:23;102308.13;;;7.14;64.24
57948;BME280;43754;56.992;24.292;2023-03-01T10:56:59;102295.53;;;7.16;68.03
57948;BME280;43754;56.992;24.292;2023-03-01T10:59:34;102296.75;;;7.12;64.70
57948;BME280;43754;56.992;24.292;2023-03-01T11:02:17;102292.00;;;7.27;64.38
57948;BME280;43754;56.992;24.292;2023-03-01T11:04:58;102294.78;;;7.14;69.27
57948;BME280;43754;56.992;24.292;2023-03-01T11:07:30;102298.41;;;7.02;70.15
57948;BME280;43754;56.992;24.292;2023-03-01T11:10:20;102293.78;;;6.93;69.80
57948;BME280;43754;56.992;24.292;2023-03-01T11:12:53;102294.03;;;6.90;70.48
57948;BME280;43754;56.992;24.292;2023-03-01T11:15:28;102297.19;;;6.84;70.23
57948;BME280;43754;56.992;24.292;2023-03-01T11:18:00;102299.97;;;6.82;68.39
57948;BME280;43754;56.992;24.292;2023-03-01T11:20:45;102299.50;;;6.88;68.51
57948;BME280;43754;56.992;24.292;2023-03-01T11:23:17;102292.13;;;6.92;68.99
57948;BME280;43754;56.992;24.292;2023-03-01T11:25:53;102291.13;;;6.93;69.38
57948;BME280;43754;56.992;24.292;2023-03-01T11:28:28;102295.47;;;6.83;69.24
57948;BME280;43754;56.992;24.292;2023-03-01T11:31:04;102287.72;;;6.80;70.13
57948;BME280;43754;56.992;24.292;2023-03-01T11:33:43;102303.47;;;6.72;70.32
57948;BME280;43754;56.992;24.292;2023-03-01T11:36:19;102298.31;;;6.58;69.00
57948;BME280;43754;56.992;24.292;2023-03-01T11:38:57;102297.88;;;6.75;69.36
57948;BME280;43754;56.992;24.292;2023-03-01T11:41:35;102308.53;;;6.75;67.87
57948;BME280;43754;56.992;24.292;2023-03-01T11:44:16;102309.75;;;6.71;67.47
57948;BME280;43754;56.992;24.292;2023-03-01T11:46:57;102306.47;;;6.67;67.63
57948;BME280;43754;56.992;24.292;2023-03-01T11:52:48;102292.72;;;6.50;67.32
57948;BME280;43754;56.992;24.292;2023-03-01T11:55:35;102292.72;;;6.50;66.69
57948;BME280;43754;56.992;24.292;2023-03-01T11:58:27;102292.53;;;6.64;66.06
57948;BME280;43754;56.992;24.292;2023-03-01T12:04:18;102299.94;;;6.71;65.13
57948;BME280;43754;56.992;24.292;2023-03-01T12:06:57;102305.22;;;6.60;64.81
57948;BME280;43754;56.992;24.292;2023-03-01T12:09:39;102295.34;;;6.38;63.82
57948;BME280;43754;56.992;24.292;2023-03-01T12:12:27;102294.84;;;6.33;64.80
57948;BME280;43754;56.992;24.292;2023-03-01T12:15:17;102292.81;;;6.13;66.08
57948;BME280;43754;56.992;24.292;2023-03-01T12:18:07;102291.06;;;6.01;67.00
57948;BME280;43754;56.992;24.292;2023-03-01T12:20:51;102277.81;;;5.88;66.24
57948;BME280;43754;56.992;24.292;2023-03-01T12:27:02;102292.47;;;5.81;67.61
57948;BME280;43754;56.992;24.292;2023-03-01T12:29:44;102287.28;;;5.80;68.37
57948;BME280;43754;56.992;24.292;2023-03-01T12:32:32;102299.38;;;5.84;68.91
57948;BME280;43754;56.992;24.292;2023-03-01T12:35:34;102295.63;;;5.99;67.48
57948;BME280;43754;56.992;24.292;2023-03-01T12:38:22;102284.88;;;6.00;67.98
57948;BME280;43754;56.992;24.292;2023-03-01T12:41:16;102288.50;;;5.99;67.52
57948;BME280;43754;56.992;24.292;2023-03-01T12:44:01;102293.31;;;5.94;68.54
57948;BME280;43754;56.992;24.292;2023-03-01T12:46:47;102286.81;;;5.86;69.55
57948;BME280;43754;56.992;24.292;2023-03-01T12:49:26;102282.41;;;5.97;69.34
57948;BME280;43754;56.992;24.292;2023-03-01T12:52:03;102273.47;;;5.98;69.63
57948;BME280;43754;56.992;24.292;2023-03-01T12:54:45;102270.44;;;5.92;69.37
57948;BME280;43754;56.992;24.292;2023-03-01T12:57:26;102272.13;;;5.80;69.02
57948;BME280;43754;56.992;24.292;2023-03-01T13:00:21;102272.66;;;5.85;69.27
57948;BME280;43754;56.992;24.292;2023-03-01T13:03:04;102268.16;;;5.62;69.06
57948;BME280;43754;56.992;24.292;2023-03-01T13:05:51;102263.59;;;5.51;69.62
57948;BME280;43754;56.992;24.292;2023-03-01T13:08:33;102272.09;;;5.56;69.34
57948;BME280;43754;56.992;24.292;2023-03-01T13:11:16;102262.53;;;5.54;69.07
57948;BME280;43754;56.992;24.292;2023-03-01T13:13:49;102256.91;;;5.59;69.08
57948;BME280;43754;56.992;24.292;2023-03-01T13:16:39;102251.56;;;5.59;69.04
57948;BME280;43754;56.992;24.292;2023-03-01T13:19:15;102248.91;;;5.59;68.73
57948;BME280;43754;56.992;24.292;2023-03-01T13:21:50;102231.88;;;5.61;68.75
57948;BME280;43754;56.992;24.292;2023-03-01T13:24:33;102227.31;;;5.63;68.00
57948;BME280;43754;56.992;24.292;2023-03-01T13:27:22;102226.00;;;5.69;67.46
57948;BME280;43754;56.992;24.292;2023-03-01T13:29:57;102227.41;;;5.62;67.71
57948;BME280;43754;56.992;24.292;2023-03-01T13:32:37;102219.81;;;5.68;67.23
57948;BME280;43754;56.992;24.292;2023-03-01T13:35:42;102220.63;;;5.57;64.27